Archival Weather

Longyear

Longyear, Svalbard (ENSB)

Report from: Tuesday, September 19, 2023 12:50 PM UTC
Current time: Sunday, July 14, 2024 12:50 AM UTC

Current weather – Weather history – Daily summaries
Weather forecast

Temperature-3.0°C (26.6°F)
Wind chill-6.7°C (20.0°F)
Dew point-8.0°C (17.6°F)
Winds 5 kts (2.6 m/s, 5.8 mph) Southeast (140°)
Visibility6.2 mi. (10 km)
Clouds Few clouds 3,000 ft. (914 m)
Altimeter30.06 in.Hg (1018 mB)
Relative humidity68 %
Density altitude-2,322 ft. (-708 m)
Flight conditions Visual Meteorological Conditions
Raw dataENSB 191250Z 14005KT 9999 FEW030 M03/M08 Q1018 RMK WIND 1400FT 05004KT
An error has occurred. This application may no longer respond until reloaded. Reload 🗙